Time;durP1;ratioP1;P1;durP2;ratioP2;P2;SDS_P1;SDS_P2;PMS_P1;PMS_P2;Temp;Humidity;BMP_temperature;BMP_pressure;BME280_temperature;BME280_humidity;BME280_pressure;Samples;Min_cycle;Max_cycle;Signal;HPM_P1;HPM_P2
2022/01/22 00:00:58;;;;;;;2.92;0.93;;;5.40;92.60;;;;;;6308155;22;20012;-79
2022/01/22 00:03:24;;;;;;;2.42;0.95;;;5.40;92.60;;;;;;6308686;22;20009;-80
2022/01/22 00:05:50;;;;;;;2.83;0.90;;;5.40;92.60;;;;;;6282392;22;19999;-80
2022/01/22 00:08:16;;;;;;;3.17;0.77;;;5.40;92.60;;;;;;6283150;22;20006;-81
2022/01/22 00:10:44;;;;;;;2.78;1.00;;;5.30;92.60;;;;;;6282964;22;19999;-80
2022/01/22 00:15:56;;;;;;;2.60;0.85;;;5.40;92.60;;;;;;6289146;22;20351;-80
2022/01/22 00:18:22;;;;;;;1.95;0.90;;;5.40;92.60;;;;;;6257245;22;20013;-80
2022/01/22 00:20:47;;;;;;;2.33;1.02;;;5.30;92.60;;;;;;6257329;22;20089;-80
2022/01/22 00:23:16;;;;;;;1.55;0.70;;;5.30;92.60;;;;;;6336346;22;20014;-81
2022/01/22 00:25:42;;;;;;;1.95;1.00;;;5.40;92.70;;;;;;6310634;22;20010;-80
2022/01/22 00:28:08;;;;;;;2.03;0.93;;;5.40;92.70;;;;;;6308642;22;20089;-80
2022/01/22 00:30:34;;;;;;;2.97;1.05;;;5.30;92.70;;;;;;6281949;22;20035;-80
2022/01/22 00:33:00;;;;;;;2.45;1.20;;;5.30;92.80;;;;;;6336160;22;20007;-80
2022/01/22 00:35:26;;;;;;;2.22;1.00;;;5.30;92.80;;;;;;6310041;22;20009;-80
2022/01/22 00:37:53;;;;;;;2.65;0.90;;;5.30;92.80;;;;;;6274160;22;20391;-79
2022/01/22 00:40:19;;;;;;;1.85;0.70;;;5.30;92.80;;;;;;6282687;22;20327;-80
2022/01/22 00:42:47;;;;;;;1.85;0.88;;;5.30;92.80;;;;;;6283287;22;20029;-80
2022/01/22 00:45:13;;;;;;;2.45;0.88;;;5.20;92.80;;;;;;6308956;22;20321;-80
2022/01/22 00:47:40;;;;;;;0.98;0.80;;;5.20;92.80;;;;;;6336684;22;20014;-80
2022/01/22 00:50:11;;;;;;;1.80;0.68;;;5.30;92.90;;;;;;6283004;22;20303;-80
2022/01/22 00:52:37;;;;;;;1.65;0.80;;;5.30;92.90;;;;;;6283070;22;20450;-83
2022/01/22 00:55:02;;;;;;;1.77;0.75;;;5.30;92.90;;;;;;6282960;22;20006;-80
2022/01/22 00:57:28;;;;;;;0.75;0.60;;;5.20;92.90;;;;;;6336406;22;20026;-80
2022/01/22 00:59:55;;;;;;;2.22;0.68;;;5.30;92.90;;;;;;6282905;22;20311;-80
2022/01/22 01:02:21;;;;;;;1.60;0.70;;;5.20;92.90;;;;;;6283035;22;20067;-80
2022/01/22 01:04:47;;;;;;;1.77;0.55;;;5.20;92.90;;;;;;6336599;22;20430;-80
2022/01/22 01:07:13;;;;;;;3.17;0.90;;;5.20;92.90;;;;;;6257780;22;20382;-80
2022/01/22 01:09:40;;;;;;;1.77;0.80;;;5.30;93.00;;;;;;6282584;22;20042;-80
2022/01/22 01:12:09;;;;;;;0.98;0.70;;;5.20;92.90;;;;;;6306568;22;20445;-80
2022/01/22 01:14:47;;;;;;;0.70;0.50;;;5.30;93.00;;;;;;6308094;22;20011;-80
2022/01/22 01:33:21;;;;;;;1.35;0.68;;;5.30;93.00;;;;;;6312513;22;20064;-80
2022/01/22 01:35:47;;;;;;;3.05;0.77;;;5.20;93.00;;;;;;6286326;22;20006;-80
2022/01/22 01:38:13;;;;;;;1.77;0.85;;;5.30;93.00;;;;;;6283823;22;20041;-81
2022/01/22 01:40:43;;;;;;;1.20;0.70;;;5.30;93.00;;;;;;6272176;22;20000;-80
2022/01/22 01:43:24;;;;;;;1.05;0.77;;;5.20;93.00;;;;;;6282989;22;20017;-80
2022/01/22 01:45:49;;;;;;;2.95;0.90;;;5.30;93.00;;;;;;6287968;22;20412;-80
2022/01/22 01:48:21;;;;;;;1.30;0.80;;;5.30;93.10;;;;;;6337728;22;20010;-80
2022/01/22 01:50:46;;;;;;;3.10;0.90;;;5.20;93.00;;;;;;6281778;22;19999;-80
2022/01/22 01:53:20;;;;;;;1.13;0.77;;;5.30;93.10;;;;;;6309504;22;20455;-80
2022/01/22 01:56:03;;;;;;;1.75;0.77;;;5.40;93.10;;;;;;6337191;22;20020;-80
2022/01/22 01:58:31;;;;;;;1.50;0.57;;;5.30;93.10;;;;;;6312264;22;20030;-80
2022/01/22 02:01:00;;;;;;;1.63;0.93;;;5.30;93.10;;;;;;6284475;22;20029;-80
2022/01/22 02:03:26;;;;;;;2.42;0.85;;;5.30;93.10;;;;;;6258957;22;20018;-79
2022/01/22 02:05:52;;;;;;;1.40;0.90;;;5.20;93.10;;;;;;6258320;22;20017;-79
2022/01/22 02:08:19;;;;;;;2.63;1.00;;;5.30;93.10;;;;;;6309126;22;20038;-81
2022/01/22 02:10:55;;;;;;;3.20;1.30;;;5.30;93.10;;;;;;6310973;22;20022;-81
2022/01/22 02:24:00;;;;;;;2.50;1.15;;;5.40;93.10;;;;;;6290336;22;20438;-82
2022/01/22 02:26:28;;;;;;;3.08;1.17;;;5.40;93.10;;;;;;6284180;22;20039;-81
2022/01/22 02:28:53;;;;;;;2.80;1.10;;;5.30;93.10;;;;;;6308021;22;20442;-83
2022/01/22 02:31:37;;;;;;;2.83;0.98;;;5.40;93.10;;;;;;6337843;22;19995;-81
2022/01/22 02:34:15;;;;;;;3.58;1.15;;;5.40;93.20;;;;;;6337127;22;20006;-80
2022/01/22 02:36:58;;;;;;;2.92;1.00;;;5.50;93.20;;;;;;6312363;22;20026;-79
2022/01/22 02:39:39;;;;;;;1.20;0.80;;;5.40;93.20;;;;;;6309340;22;20406;-79
2022/01/22 02:42:06;;;;;;;2.20;1.10;;;5.40;93.20;;;;;;6285481;22;20002;-79
2022/01/22 02:44:34;;;;;;;2.80;1.20;;;5.40;93.20;;;;;;6309438;22;19997;-80
2022/01/22 02:47:03;;;;;;;2.35;1.00;;;5.50;93.20;;;;;;6284147;22;20018;-79
2022/01/22 02:49:29;;;;;;;1.85;1.00;;;5.40;93.20;;;;;;6281750;22;20000;-79
2022/01/22 02:52:00;;;;;;;2.47;1.00;;;5.30;93.20;;;;;;6283464;22;20388;-79
2022/01/22 02:54:26;;;;;;;2.53;1.20;;;5.40;93.20;;;;;;6280060;22;20319;-81
2022/01/22 02:56:51;;;;;;;2.63;1.50;;;5.40;93.20;;;;;;6310173;22;20007;-79
2022/01/22 02:59:21;;;;;;;5.00;1.60;;;5.40;93.30;;;;;;6309307;22;20040;-81
2022/01/22 03:01:48;;;;;;;2.35;1.17;;;5.30;93.20;;;;;;6307545;22;20019;-81
2022/01/22 03:04:13;;;;;;;3.28;1.25;;;5.30;93.20;;;;;;6307099;22;20011;-79
2022/01/22 03:06:39;;;;;;;2.58;1.20;;;5.40;93.30;;;;;;6309439;22;20014;-81
2022/01/22 03:09:08;;;;;;;2.60;1.25;;;5.40;93.30;;;;;;6308932;22;20321;-81
2022/01/22 03:11:43;;;;;;;3.30;1.20;;;5.30;93.30;;;;;;6259214;22;20369;-79
2022/01/22 03:14:53;;;;;;;2.60;0.98;;;5.40;93.30;;;;;;6337018;22;19998;-81
2022/01/22 03:17:12;;;;;;;2.50;1.15;;;5.40;93.30;;;;;;6313557;22;20004;-79
2022/01/22 03:22:43;;;;;;;2.05;1.10;;;5.50;93.30;;;;;;6292743;22;20119;-79
2022/01/22 03:27:45;;;;;;;2.60;1.10;;;5.50;93.30;;;;;;6312004;22;20022;-79
2022/01/22 03:30:12;;;;;;;2.30;1.38;;;5.50;93.20;;;;;;6283500;22;19999;-80
2022/01/22 03:32:43;;;;;;;2.60;1.17;;;5.40;93.20;;;;;;6309794;22;20383;-79
2022/01/22 03:37:51;;;;;;;3.25;1.42;;;5.50;93.20;;;;;;6307929;22;20014;-80
2022/01/22 03:40:21;;;;;;;2.10;1.20;;;5.50;93.20;;;;;;6257251;22;20015;-79
2022/01/22 03:42:49;;;;;;;3.08;1.52;;;5.50;93.20;;;;;;6336627;22;20279;-79
2022/01/22 03:45:16;;;;;;;1.63;1.10;;;5.50;93.20;;;;;;6336814;22;20007;-80
2022/01/22 03:47:43;;;;;;;2.58;1.23;;;5.50;93.20;;;;;;6306197;22;20051;-79
2022/01/22 03:50:10;;;;;;;2.67;0.90;;;5.50;93.50;;;;;;6309318;22;20103;-79
2022/01/22 03:52:36;;;;;;;0.80;0.75;;;5.50;93.30;;;;;;6309412;22;20046;-80
2022/01/22 03:55:05;;;;;;;1.85;1.02;;;5.50;93.20;;;;;;6282256;22;20011;-79
2022/01/22 03:57:31;;;;;;;1.58;0.85;;;5.60;93.30;;;;;;6336667;22;20334;-79
2022/01/22 03:59:57;;;;;;;2.03;1.05;;;5.60;93.30;;;;;;6309255;22;20089;-79
2022/01/22 04:05:10;;;;;;;1.67;1.10;;;5.60;93.30;;;;;;6336435;22;20033;-80
2022/01/22 04:10:20;;;;;;;2.40;1.10;;;5.60;93.60;;;;;;6336562;22;20036;-80
2022/01/22 04:12:57;;;;;;;2.28;1.10;;;5.60;93.30;;;;;;6283735;22;20022;-79
2022/01/22 04:15:26;;;;;;;1.08;0.90;;;5.60;93.30;;;;;;6288150;22;20105;-79
2022/01/22 04:25:58;;;;;;;2.28;0.98;;;5.60;93.30;;;;;;6336484;22;20085;-79
2022/01/22 04:28:24;;;;;;;1.05;0.73;;;5.60;93.60;;;;;;6336574;22;20093;-79
2022/01/22 04:30:50;;;;;;;1.40;0.70;;;5.60;93.40;;;;;;6257594;22;19995;-79
2022/01/22 04:33:16;;;;;;;1.50;0.75;;;5.60;93.40;;;;;;6282537;22;20117;-81
2022/01/22 04:35:41;;;;;;;0.93;0.57;;;5.60;93.40;;;;;;6257424;22;20002;-79
2022/01/22 04:38:07;;;;;;;1.58;0.80;;;5.60;93.40;;;;;;6282980;22;20075;-79
2022/01/22 04:40:33;;;;;;;1.67;0.77;;;5.70;93.40;;;;;;6308943;22;20015;-79
2022/01/22 04:43:00;;;;;;;1.15;0.65;;;5.60;93.40;;;;;;6282995;22;20014;-79
2022/01/22 04:45:41;;;;;;;1.27;0.85;;;5.60;93.40;;;;;;6309599;22;20014;-79
2022/01/22 04:48:39;;;;;;;1.63;0.85;;;5.60;93.40;;;;;;6284719;22;20026;-79
2022/01/22 04:56:11;;;;;;;1.10;0.70;;;5.60;93.40;;;;;;6289327;22;20095;-80
2022/01/22 04:58:36;;;;;;;2.20;1.00;;;5.70;93.40;;;;;;6306126;22;20004;-79
2022/01/22 05:01:02;;;;;;;1.67;0.82;;;5.60;93.40;;;;;;6307949;22;20013;-79
2022/01/22 05:03:28;;;;;;;1.23;0.85;;;5.70;93.40;;;;;;6309074;22;20003;-79
2022/01/22 05:05:53;;;;;;;0.95;0.70;;;5.70;93.40;;;;;;6255063;22;20081;-79
2022/01/22 05:08:19;;;;;;;1.10;0.88;;;5.70;93.40;;;;;;6274748;22;20364;-79
2022/01/22 05:10:45;;;;;;;1.10;0.70;;;5.70;93.40;;;;;;6309509;22;20303;-80
2022/01/22 05:13:10;;;;;;;1.38;0.73;;;5.60;93.40;;;;;;6280815;22;20007;-79
2022/01/22 05:15:36;;;;;;;2.20;0.70;;;5.70;93.50;;;;;;6308747;22;19999;-79
2022/01/22 05:18:06;;;;;;;0.77;0.65;;;5.60;93.40;;;;;;6329926;22;20457;-80
2022/01/22 05:20:39;;;;;;;3.15;0.88;;;5.60;93.40;;;;;;6284352;22;20003;-79
2022/01/22 05:23:12;;;;;;;3.53;0.90;;;5.70;93.50;;;;;;6284060;22;19998;-80
2022/01/22 05:25:43;;;;;;;1.73;0.88;;;5.70;93.50;;;;;;6306234;22;20003;-79
2022/01/22 05:31:01;;;;;;;0.57;0.40;;;5.70;93.50;;;;;;6336342;22;20015;-79
2022/01/22 05:36:55;;;;;;;1.50;0.70;;;5.80;93.50;;;;;;6310825;22;20057;-79
2022/01/22 05:37:13;;;;;;;2.13;0.75;;;5.70;93.50;;;;;;6330536;22;20450;-79
2022/01/22 05:38:58;;;;;;;1.15;0.47;;;5.70;93.40;;;;;;6308645;22;20058;-79
2022/01/22 05:41:23;;;;;;;2.60;0.63;;;5.70;93.40;;;;;;6282796;22;20338;-79
2022/01/22 05:43:49;;;;;;;1.48;0.77;;;5.70;93.40;;;;;;6257043;22;20006;-79
2022/01/22 05:46:15;;;;;;;1.13;0.43;;;5.70;93.60;;;;;;6336917;22;20051;-79
2022/01/22 05:48:41;;;;;;;1.98;0.68;;;5.70;93.50;;;;;;6279781;22;20003;-79
2022/01/22 05:51:07;;;;;;;1.08;0.60;;;5.70;93.50;;;;;;6282795;22;20003;-80
2022/01/22 06:01:44;;;;;;;2.08;0.63;;;5.80;93.50;;;;;;6336223;22;20033;-79
2022/01/22 06:04:10;;;;;;;2.33;0.88;;;5.70;93.50;;;;;;6283786;22;20010;-79
2022/01/22 06:06:36;;;;;;;1.50;0.63;;;5.80;93.50;;;;;;6337670;22;20002;-80
2022/01/22 06:09:07;;;;;;;1.20;0.70;;;5.70;93.50;;;;;;6310518;22;20003;-79
2022/01/22 06:11:40;;;;;;;1.92;0.85;;;5.70;93.50;;;;;;6338172;22;20048;-79
2022/01/22 06:14:06;;;;;;;1.30;0.75;;;5.80;93.50;;;;;;6309661;22;19995;-79
2022/01/22 06:16:32;;;;;;;1.35;0.80;;;5.70;93.50;;;;;;6258472;22;20422;-81
2022/01/22 06:18:57;;;;;;;2.45;0.90;;;5.80;93.50;;;;;;6310405;22;20034;-82
2022/01/22 06:21:23;;;;;;;1.85;0.70;;;5.80;93.50;;;;;;6309767;22;20007;-81
2022/01/22 06:23:49;;;;;;;1.85;0.80;;;5.70;93.50;;;;;;6309944;22;20010;-81
2022/01/22 06:26:15;;;;;;;1.98;0.90;;;5.70;93.50;;;;;;6300835;22;20099;-81
2022/01/22 06:28:41;;;;;;;1.45;0.90;;;5.80;93.50;;;;;;6284287;22;20015;-81
2022/01/22 06:31:07;;;;;;;4.45;1.00;;;5.80;93.50;;;;;;6283519;22;19999;-81
2022/01/22 06:33:33;;;;;;;2.10;1.00;;;5.80;93.60;;;;;;6309717;22;19998;-82
2022/01/22 06:35:59;;;;;;;2.08;0.90;;;5.80;93.60;;;;;;6309734;22;20002;-81
2022/01/22 06:38:27;;;;;;;1.58;0.80;;;5.80;93.60;;;;;;6337275;22;20804;-81
2022/01/22 06:43:37;;;;;;;1.63;0.77;;;5.80;93.60;;;;;;6292305;22;20018;-81
2022/01/22 06:46:03;;;;;;;1.23;0.80;;;5.80;93.60;;;;;;6337455;22;20009;-81
2022/01/22 06:48:29;;;;;;;2.13;0.90;;;5.80;93.60;;;;;;6309036;22;20384;-81
2022/01/22 06:50:57;;;;;;;1.90;1.10;;;5.80;93.60;;;;;;6283996;22;20005;-82
2022/01/22 06:53:23;;;;;;;3.03;0.90;;;5.80;93.60;;;;;;6337245;22;20003;-82
2022/01/22 06:55:58;;;;;;;2.20;1.20;;;5.80;93.60;;;;;;6303468;22;20026;-82
2022/01/22 06:58:24;;;;;;;2.50;1.10;;;5.80;93.60;;;;;;6259100;22;20455;-81
2022/01/22 07:00:49;;;;;;;1.55;0.80;;;5.80;93.60;;;;;;6281574;22;20015;-81
2022/01/22 07:03:15;;;;;;;2.25;1.20;;;5.80;93.60;;;;;;6285224;22;20007;-81
2022/01/22 07:05:41;;;;;;;2.10;1.13;;;5.80;93.60;;;;;;6289390;22;19999;-81
2022/01/22 07:08:07;;;;;;;1.85;1.00;;;5.80;93.60;;;;;;6333919;22;20326;-81
2022/01/22 07:10:33;;;;;;;1.67;1.00;;;5.80;93.60;;;;;;6311145;22;20006;-80
2022/01/22 07:12:59;;;;;;;1.85;1.13;;;5.90;93.60;;;;;;6310433;22;20002;-81
2022/01/22 07:15:25;;;;;;;1.98;1.05;;;5.80;93.60;;;;;;6282031;22;20160;-80
2022/01/22 07:17:51;;;;;;;2.20;1.23;;;5.80;93.60;;;;;;6332663;22;20102;-82
2022/01/22 07:20:25;;;;;;;3.25;1.30;;;5.90;93.60;;;;;;6334968;22;20027;-81
2022/01/22 07:22:59;;;;;;;3.00;1.45;;;5.90;93.60;;;;;;6283476;22;19999;-81
2022/01/22 07:25:25;;;;;;;2.50;0.90;;;5.90;93.60;;;;;;6337674;22;20002;-81
2022/01/22 07:27:51;;;;;;;1.30;0.80;;;6.00;93.70;;;;;;6282324;22;20019;-80
2022/01/22 07:30:17;;;;;;;1.45;0.82;;;6.00;93.70;;;;;;6283583;22;20002;-81
2022/01/22 07:32:44;;;;;;;1.42;0.90;;;6.00;93.70;;;;;;6283615;22;20003;-80
2022/01/22 07:35:12;;;;;;;1.25;0.77;;;6.00;93.70;;;;;;6284678;22;20007;-81
2022/01/22 07:37:39;;;;;;;1.65;0.88;;;6.00;93.90;;;;;;6307361;22;20007;-82
2022/01/22 07:40:08;;;;;;;0.93;0.52;;;6.00;93.60;;;;;;6283507;22;19999;-82
2022/01/22 07:42:34;;;;;;;2.28;0.75;;;6.10;93.70;;;;;;6309284;22;20003;-82
2022/01/22 07:45:00;;;;;;;1.55;0.68;;;6.00;93.60;;;;;;6309280;22;20026;-82
2022/01/22 07:47:25;;;;;;;1.58;0.98;;;6.00;93.60;;;;;;6281120;22;20057;-82
2022/01/22 07:49:51;;;;;;;1.10;0.60;;;6.10;93.60;;;;;;6310350;22;20319;-82
2022/01/22 07:52:17;;;;;;;2.50;0.77;;;6.10;93.60;;;;;;6310094;22;19995;-82
2022/01/22 07:54:43;;;;;;;3.25;1.05;;;6.20;93.60;;;;;;6283875;22;19995;-82
2022/01/22 07:57:09;;;;;;;2.45;0.90;;;6.10;93.60;;;;;;6309822;22;20026;-82
2022/01/22 07:59:34;;;;;;;1.38;0.80;;;6.20;93.60;;;;;;6283437;22;20046;-82
2022/01/22 08:02:03;;;;;;;2.58;0.80;;;6.20;93.60;;;;;;6281890;22;19999;-82
2022/01/22 08:04:29;;;;;;;0.55;0.50;;;6.10;93.60;;;;;;6283564;22;19999;-82
2022/01/22 08:06:58;;;;;;;1.67;0.70;;;6.30;93.60;;;;;;6310003;22;20326;-82
2022/01/22 08:09:23;;;;;;;2.33;0.65;;;6.30;93.60;;;;;;6283946;22;20011;-82
2022/01/22 08:11:49;;;;;;;0.70;0.50;;;6.30;93.60;;;;;;6258008;22;19999;-82
2022/01/22 08:14:16;;;;;;;0.30;0.30;;;6.20;93.60;;;;;;6281503;22;20002;-82
2022/01/22 08:16:44;;;;;;;0.30;0.30;;;6.30;93.70;;;;;;6309709;22;20005;-82
2022/01/22 08:19:09;;;;;;;1.58;0.40;;;6.30;93.70;;;;;;6283758;22;19995;-82
2022/01/22 08:21:35;;;;;;;2.85;0.60;;;6.30;93.70;;;;;;6257813;22;20090;-82
2022/01/22 08:24:01;;;;;;;0.98;0.60;;;6.30;93.70;;;;;;6309336;22;20169;-82
2022/01/22 08:26:35;;;;;;;1.38;0.57;;;6.30;93.70;;;;;;6276706;22;20087;-83
2022/01/22 08:29:03;;;;;;;0.75;0.63;;;6.30;93.70;;;;;;6256235;22;20012;-82
2022/01/22 08:31:46;;;;;;;0.55;0.50;;;6.30;93.70;;;;;;6309560;22;20005;-82
2022/01/22 08:36:57;;;;;;;1.77;0.60;;;6.40;93.70;;;;;;6336602;22;20322;-82
2022/01/22 08:39:23;;;;;;;0.85;0.60;;;6.30;93.70;;;;;;6283394;22;20021;-82
2022/01/22 08:41:49;;;;;;;1.00;0.52;;;6.30;93.60;;;;;;6257951;22;20077;-82
2022/01/22 08:44:16;;;;;;;1.02;0.50;;;6.40;93.70;;;;;;6306454;22;20006;-83
2022/01/22 08:46:42;;;;;;;1.15;0.60;;;6.40;93.70;;;;;;6283586;22;19998;-81
2022/01/22 08:49:09;;;;;;;1.75;0.52;;;6.40;93.70;;;;;;6283163;22;20098;-81
2022/01/22 08:51:38;;;;;;;1.48;0.63;;;6.40;93.70;;;;;;6283003;22;20477;-81
2022/01/22 08:54:05;;;;;;;1.15;0.70;;;6.40;93.70;;;;;;6309704;22;19995;-80
2022/01/22 08:56:31;;;;;;;0.95;0.60;;;6.40;93.60;;;;;;6283358;22;20060;-80
2022/01/22 08:58:57;;;;;;;0.60;0.43;;;6.50;93.70;;;;;;6283093;22;20013;-81
2022/01/22 09:01:24;;;;;;;0.73;0.50;;;6.40;93.60;;;;;;6309354;22;20003;-81
2022/01/22 09:03:50;;;;;;;0.50;0.50;;;6.50;93.60;;;;;;6337149;22;20014;-81
2022/01/22 09:06:17;;;;;;;0.75;0.40;;;6.50;93.60;;;;;;6309166;22;20003;-82
2022/01/22 09:08:45;;;;;;;0.93;0.40;;;6.50;93.60;;;;;;6308984;22;20011;-81
2022/01/22 09:11:13;;;;;;;0.57;0.50;;;6.60;93.60;;;;;;6337217;22;20038;-83
2022/01/22 09:13:38;;;;;;;0.55;0.43;;;6.70;93.60;;;;;;6333699;22;20096;-83
2022/01/22 09:16:05;;;;;;;1.27;0.60;;;6.50;93.60;;;;;;6282121;22;20414;-80
2022/01/22 09:18:31;;;;;;;1.65;0.70;;;6.60;93.60;;;;;;6282651;22;20060;-81
2022/01/22 09:21:04;;;;;;;0.75;0.50;;;6.60;93.60;;;;;;6312046;22;20906;-81
2022/01/22 09:23:31;;;;;;;0.88;0.60;;;6.60;93.60;;;;;;6312519;22;19998;-83
2022/01/22 09:25:58;;;;;;;0.82;0.50;;;6.60;93.50;;;;;;6283441;22;20003;-81
2022/01/22 09:28:24;;;;;;;0.57;0.40;;;6.60;93.50;;;;;;6282800;22;20124;-81
2022/01/22 09:30:50;;;;;;;1.48;0.40;;;6.70;93.60;;;;;;6283465;22;20086;-82
2022/01/22 09:33:16;;;;;;;0.65;0.43;;;6.70;93.50;;;;;;6283057;22;20030;-81
2022/01/22 09:35:42;;;;;;;0.60;0.40;;;6.70;93.50;;;;;;6336097;22;20352;-82
2022/01/22 09:38:09;;;;;;;0.73;0.50;;;6.70;93.50;;;;;;6299948;22;20007;-82
2022/01/22 09:40:35;;;;;;;1.50;0.40;;;6.70;93.50;;;;;;6258817;22;20453;-82
2022/01/22 09:43:01;;;;;;;2.55;1.13;;;6.70;93.50;;;;;;6258681;22;20105;-81
2022/01/22 09:45:29;;;;;;;1.77;0.73;;;6.70;93.50;;;;;;6337686;22;20030;-82
2022/01/22 09:47:58;;;;;;;0.80;0.55;;;6.70;93.50;;;;;;6337421;22;20026;-82
2022/01/22 09:50:26;;;;;;;1.23;0.60;;;6.70;93.40;;;;;;6259526;22;20002;-82
2022/01/22 09:52:52;;;;;;;0.80;0.50;;;6.80;93.50;;;;;;6258915;22;20006;-82
2022/01/22 09:55:18;;;;;;;1.00;0.63;;;6.80;93.40;;;;;;6310062;22;19999;-82
2022/01/22 09:57:45;;;;;;;1.77;0.55;;;6.80;93.40;;;;;;6309590;22;20002;-82
2022/01/22 10:00:14;;;;;;;0.50;0.35;;;6.80;93.40;;;;;;6284170;22;20137;-83
2022/01/22 10:02:45;;;;;;;2.22;0.50;;;6.80;93.40;;;;;;6285356;22;20035;-84
2022/01/22 10:05:34;;;;;;;0.75;0.50;;;6.90;93.40;;;;;;6285579;22;20487;-83
2022/01/22 10:08:16;;;;;;;1.08;0.57;;;6.90;93.40;;;;;;6331914;22;20042;-80
2022/01/22 10:10:42;;;;;;;1.20;0.70;;;6.80;93.40;;;;;;6308294;22;20061;-78
2022/01/22 10:13:07;;;;;;;1.77;0.70;;;6.90;93.40;;;;;;6284453;22;20003;-81
2022/01/22 10:15:35;;;;;;;0.73;0.40;;;6.90;93.40;;;;;;6284108;22;20002;-80
2022/01/22 10:18:02;;;;;;;1.52;0.47;;;6.90;93.30;;;;;;6308483;22;20412;-81
2022/01/22 10:20:37;;;;;;;0.70;0.60;;;7.00;93.40;;;;;;6338043;22;20007;-81
2022/01/22 10:23:16;;;;;;;1.20;0.50;;;7.00;93.30;;;;;;6285018;22;20029;-81
2022/01/22 10:25:48;;;;;;;1.42;0.60;;;7.00;93.30;;;;;;6309795;22;20007;-81
2022/01/22 10:28:21;;;;;;;0.40;0.25;;;6.90;93.30;;;;;;6258388;22;20097;-81
2022/01/22 10:30:51;;;;;;;2.35;0.70;;;7.00;93.30;;;;;;6259995;22;20078;-81
2022/01/22 10:33:27;;;;;;;0.68;0.43;;;7.00;93.20;;;;;;6285144;22;20019;-81
2022/01/22 10:35:54;;;;;;;1.80;0.70;;;7.10;93.30;;;;;;6338023;22;20002;-81
2022/01/22 10:38:21;;;;;;;1.35;0.50;;;7.00;93.20;;;;;;6284746;22;20030;-81
2022/01/22 10:40:49;;;;;;;1.48;0.63;;;7.00;93.20;;;;;;6257486;22;20006;-81
2022/01/22 10:43:28;;;;;;;1.15;0.55;;;7.00;93.20;;;;;;6307695;22;20484;-81
2022/01/22 10:46:02;;;;;;;0.95;0.55;;;7.10;93.20;;;;;;6285541;22;19998;-81
2022/01/22 10:48:28;;;;;;;1.50;0.63;;;7.00;93.20;;;;;;6283805;22;20021;-81
2022/01/22 10:51:10;;;;;;;1.45;0.50;;;7.00;93.20;;;;;;6309676;22;20381;-81
2022/01/22 10:53:49;;;;;;;1.70;0.60;;;6.90;93.20;;;;;;6309579;22;20542;-81
2022/01/22 10:56:19;;;;;;;0.60;0.50;;;7.00;93.30;;;;;;6273229;22;20004;-81
2022/01/22 10:58:57;;;;;;;1.85;0.40;;;7.00;93.30;;;;;;6277461;22;20086;-81
2022/01/22 11:01:30;;;;;;;0.47;0.40;;;7.10;93.40;;;;;;6308906;22;20013;-82
2022/01/22 11:04:10;;;;;;;1.00;0.40;;;7.00;93.40;;;;;;6283525;22;20105;-82
2022/01/22 11:06:39;;;;;;;0.30;0.30;;;7.00;93.40;;;;;;6331960;22;20003;-81
2022/01/22 11:09:06;;;;;;;0.95;0.40;;;7.00;93.30;;;;;;6283012;22;20007;-82
2022/01/22 11:11:36;;;;;;;0.93;0.60;;;7.00;93.30;;;;;;6307368;22;20000;-81
2022/01/22 11:14:04;;;;;;;2.27;0.60;;;7.00;93.30;;;;;;6337854;22;20003;-81
2022/01/22 11:16:31;;;;;;;1.00;0.60;;;7.10;93.40;;;;;;6283728;22;20557;-82
2022/01/22 11:18:59;;;;;;;0.88;0.50;;;7.10;93.30;;;;;;6309617;22;20014;-82
2022/01/22 11:21:25;;;;;;;0.93;0.50;;;7.10;93.30;;;;;;6309494;22;20035;-82
2022/01/22 11:23:51;;;;;;;1.38;0.70;;;7.10;93.30;;;;;;6256570;22;20009;-81
2022/01/22 11:26:17;;;;;;;1.13;0.55;;;7.10;93.30;;;;;;6284025;22;20081;-81
2022/01/22 11:28:45;;;;;;;3.90;0.70;;;7.10;93.30;;;;;;6309476;22;20481;-81
2022/01/22 11:31:15;;;;;;;2.10;0.60;;;7.10;93.30;;;;;;6283707;22;20314;-81
2022/01/22 11:33:44;;;;;;;1.38;0.60;;;7.10;93.30;;;;;;6257936;22;20014;-81
2022/01/22 11:36:22;;;;;;;1.10;0.52;;;7.10;93.30;;;;;;6281980;22;19999;-81
2022/01/22 11:38:53;;;;;;;1.98;0.82;;;7.10;93.30;;;;;;6334297;22;20013;-81
2022/01/22 11:41:21;;;;;;;;;;;7.10;93.30;;;;;;6280514;22;20007;-81
2022/01/22 11:46:44;;;;;;;1.00;0.70;;;7.20;93.30;;;;;;6335444;22;20015;-81
2022/01/22 11:49:11;;;;;;;;;;;7.20;93.20;;;;;;6259827;22;20034;-81
2022/01/22 11:51:37;;;;;;;2.10;0.52;;;7.10;93.20;;;;;;6331414;22;19910;-81
2022/01/22 11:54:03;;;;;;;0.75;0.52;;;7.20;93.20;;;;;;6306358;22;19995;-81
2022/01/22 11:56:40;;;;;;;1.13;0.63;;;7.20;93.10;;;;;;6257672;22;19999;-82
2022/01/22 11:59:24;;;;;;;1.42;0.70;;;7.20;93.10;;;;;;6306661;22;20307;-81
2022/01/22 12:01:53;;;;;;;2.22;1.02;;;7.20;93.10;;;;;;6337044;22;20003;-81
2022/01/22 12:04:22;;;;;;;2.03;0.80;;;7.20;93.10;;;;;;6281019;22;20052;-82
2022/01/22 12:07:10;;;;;;;2.33;0.80;;;7.20;93.10;;;;;;6285175;22;20002;-82
2022/01/22 12:09:54;;;;;;;1.27;0.90;;;7.20;93.10;;;;;;6263317;22;20017;-81
2022/01/22 12:15:13;;;;;;;1.05;0.68;;;7.20;93.00;;;;;;6306195;22;20003;-82
2022/01/22 12:18:00;;;;;;;1.45;0.70;;;7.40;93.00;;;;;;6336777;22;20003;-81
2022/01/22 12:23:45;;;;;;;1.15;0.80;;;7.40;93.00;;;;;;6269317;22;20016;-81
2022/01/22 12:26:10;;;;;;;0.70;0.57;;;7.30;93.00;;;;;;6286388;22;20011;-81
2022/01/22 12:28:41;;;;;;;1.58;0.70;;;7.30;92.90;;;;;;6336747;22;20007;-81
2022/01/22 12:31:15;;;;;;;1.33;0.80;;;7.40;92.90;;;;;;6282261;22;20026;-81
2022/01/22 12:33:49;;;;;;;0.70;0.47;;;7.30;92.90;;;;;;6284756;22;20328;-81
2022/01/22 12:36:21;;;;;;;0.85;0.57;;;7.50;92.90;;;;;;6308325;22;20068;-81
2022/01/22 12:39:01;;;;;;;0.60;0.47;;;7.50;92.90;;;;;;6260270;22;20011;-81
2022/01/22 12:46:58;;;;;;;1.02;0.50;;;7.40;92.90;;;;;;6310258;22;20086;-81
2022/01/22 12:49:25;;;;;;;1.73;0.55;;;7.50;92.90;;;;;;6280386;22;20011;-81
2022/01/22 12:51:56;;;;;;;0.63;0.50;;;7.50;92.90;;;;;;6279972;22;20052;-81
2022/01/22 12:54:35;;;;;;;1.23;0.80;;;7.50;92.90;;;;;;6281442;22;19995;-80
2022/01/22 12:57:05;;;;;;;1.60;0.60;;;7.40;92.80;;;;;;6307324;22;20003;-80
2022/01/22 12:59:34;;;;;;;1.50;0.70;;;7.50;92.80;;;;;;6308735;22;20085;-80
2022/01/22 13:02:00;;;;;;;1.80;0.63;;;7.50;92.80;;;;;;6309392;22;20006;-80
2022/01/22 13:04:26;;;;;;;0.77;0.70;;;7.50;92.80;;;;;;6307851;22;19999;-80
2022/01/22 13:06:53;;;;;;;1.70;0.73;;;7.50;92.80;;;;;;6282778;22;20007;-80
2022/01/22 13:09:19;;;;;;;1.92;0.82;;;7.50;92.70;;;;;;6308826;22;20050;-80
2022/01/22 13:11:50;;;;;;;2.17;0.85;;;7.50;92.70;;;;;;6282558;22;20323;-80
2022/01/22 13:14:25;;;;;;;0.95;0.75;;;7.50;92.70;;;;;;6308632;22;20033;-80
2022/01/22 13:16:53;;;;;;;2.90;0.90;;;7.50;92.80;;;;;;6308851;22;20011;-80
2022/01/22 13:19:21;;;;;;;2.70;1.13;;;7.40;92.70;;;;;;6282745;22;20006;-80
2022/01/22 13:21:52;;;;;;;2.03;1.10;;;7.40;92.70;;;;;;6308790;22;20329;-80
2022/01/22 13:24:22;;;;;;;1.25;0.65;;;7.40;92.70;;;;;;6336766;22;20002;-81
2022/01/22 13:27:01;;;;;;;2.17;0.93;;;7.40;92.80;;;;;;6308713;22;20034;-80
2022/01/22 13:29:33;;;;;;;2.80;1.20;;;7.40;92.80;;;;;;6336842;22;20006;-78
2022/01/22 13:32:28;;;;;;;4.10;1.35;;;7.40;92.80;;;;;;6309741;22;20030;-78
2022/01/22 13:35:12;;;;;;;2.58;1.40;;;7.30;92.80;;;;;;6336369;22;20449;-78
2022/01/22 13:45:03;;;;;;;1.98;1.20;;;7.40;92.80;;;;;;6336161;22;20041;-80
2022/01/22 13:49:09;;;;;;;1.92;1.20;;;7.30;92.80;;;;;;6289290;22;20030;-79
2022/01/22 13:51:37;;;;;;;1.90;1.20;;;7.30;92.80;;;;;;6306935;22;20054;-79
2022/01/22 13:54:04;;;;;;;1.70;0.98;;;7.30;92.80;;;;;;6336560;22;20862;-79
2022/01/22 13:56:48;;;;;;;1.88;0.88;;;7.30;92.80;;;;;;6308498;22;20483;-79
2022/01/22 13:59:17;;;;;;;1.27;0.80;;;7.30;92.90;;;;;;6336001;22;20006;-80
2022/01/22 14:04:54;;;;;;;1.45;1.05;;;7.30;92.90;;;;;;6313040;22;20394;-79
2022/01/22 14:07:28;;;;;;;1.38;0.95;;;7.30;92.90;;;;;;6306453;22;20007;-80
2022/01/22 14:10:01;;;;;;;2.90;1.23;;;7.30;92.90;;;;;;6308190;22;20014;-80
2022/01/22 14:12:33;;;;;;;0.88;0.75;;;7.30;92.90;;;;;;6283307;22;20296;-80
2022/01/22 14:15:04;;;;;;;1.50;1.00;;;7.30;92.90;;;;;;6284469;22;20402;-80
2022/01/22 14:17:38;;;;;;;1.35;0.88;;;7.30;92.90;;;;;;6277793;22;20010;-80
2022/01/22 14:20:10;;;;;;;1.70;1.02;;;7.20;92.90;;;;;;6334796;22;19995;-81
2022/01/22 14:22:57;;;;;;;1.60;0.88;;;7.30;92.90;;;;;;6282330;22;20030;-81
2022/01/22 14:25:24;;;;;;;1.48;0.88;;;7.30;92.90;;;;;;6337703;22;19995;-80
2022/01/22 14:28:01;;;;;;;0.80;0.65;;;7.30;92.90;;;;;;6306830;22;20018;-81
2022/01/22 14:30:39;;;;;;;1.00;0.60;;;7.30;92.90;;;;;;6309456;22;20032;-80
2022/01/22 14:33:07;;;;;;;1.02;0.80;;;7.30;92.90;;;;;;6280025;22;20432;-80
2022/01/22 14:35:34;;;;;;;1.98;1.02;;;7.30;92.90;;;;;;6310184;22;20002;-79
2022/01/22 14:38:19;;;;;;;2.15;1.10;;;7.30;92.90;;;;;;6337365;22;20060;-79
2022/01/22 14:46:06;;;;;;;1.13;0.85;;;7.30;92.90;;;;;;6313546;22;20011;-80
2022/01/22 14:48:32;;;;;;;0.90;0.55;;;7.30;92.90;;;;;;6309396;22;20064;-83
2022/01/22 14:50:58;;;;;;;1.38;0.90;;;7.20;92.80;;;;;;6221102;22;20394;-83
2022/01/22 14:53:24;;;;;;;1.42;0.85;;;7.30;92.90;;;;;;6246610;22;20020;-80